createdAt,value
2022-12-19T00:00:22.977Z,1.04
2022-12-19T00:01:23.170Z,1.04
2022-12-19T00:02:23.321Z,1.04
2022-12-19T00:03:23.423Z,1.04
2022-12-19T00:04:23.481Z,1.04
2022-12-19T00:05:23.632Z,1.04
2022-12-19T00:06:23.778Z,1.04
2022-12-19T00:07:23.894Z,1.04
2022-12-19T00:08:23.982Z,1.04
2022-12-19T00:09:24.133Z,1.04
2022-12-19T00:10:24.302Z,1.04
2022-12-19T00:11:24.437Z,1.04
2022-12-19T00:12:24.592Z,1.04
2022-12-19T00:13:24.754Z,1.04
2022-12-19T00:14:24.891Z,1.04
2022-12-19T00:15:25.044Z,1.04
2022-12-19T00:16:25.227Z,1.04
2022-12-19T00:17:25.302Z,1.04
2022-12-19T00:18:25.410Z,1.04
2022-12-19T00:19:25.547Z,1.04
2022-12-19T00:20:25.655Z,1.04
2022-12-19T00:21:25.798Z,1.04
2022-12-19T00:22:25.951Z,1.04
2022-12-19T00:23:26.105Z,1.04
2022-12-19T00:24:26.259Z,1.04
2022-12-19T00:25:26.403Z,1.04
2022-12-19T00:26:26.571Z,1.04
2022-12-19T00:27:26.710Z,1.04
2022-12-19T00:28:26.861Z,1.04
2022-12-19T00:29:27.021Z,1.04
2022-12-19T00:30:27.177Z,1.04
2022-12-19T00:31:27.386Z,1.04
2022-12-19T00:32:27.407Z,1.04
2022-12-19T00:33:27.532Z,1.04
2022-12-19T00:34:27.678Z,1.04
2022-12-19T00:35:27.823Z,1.04
2022-12-19T00:36:27.966Z,1.04
2022-12-19T00:37:28.103Z,1.04
2022-12-19T00:38:28.232Z,1.04
2022-12-19T00:39:28.378Z,1.04
2022-12-19T00:40:28.485Z,1.04
2022-12-19T00:41:28.630Z,1.04
2022-12-19T00:42:28.734Z,1.04
2022-12-19T00:43:28.881Z,1.04
2022-12-19T00:44:29.048Z,1.04
2022-12-19T00:45:29.261Z,1.04
2022-12-19T00:46:29.331Z,1.04
2022-12-19T00:47:29.532Z,1.04
2022-12-19T00:48:29.682Z,1.04
2022-12-19T00:49:29.794Z,1.04
2022-12-19T00:50:29.949Z,1.04
2022-12-19T00:51:30.114Z,1.04
2022-12-19T00:52:30.246Z,1.04
2022-12-19T00:53:30.339Z,1.04
2022-12-19T00:54:30.590Z,1.04
2022-12-19T00:55:30.642Z,1.04
2022-12-19T00:56:30.804Z,1.04
2022-12-19T00:57:30.965Z,1.04
2022-12-19T00:58:34.461Z,1.04
2022-12-19T00:59:31.208Z,1.04
2022-12-19T01:00:31.379Z,1.04
2022-12-19T01:01:31.599Z,1.04
2022-12-19T01:02:31.760Z,1.04
2022-12-19T01:03:31.778Z,1.04
2022-12-19T01:04:35.623Z,1.04
2022-12-19T01:05:32.072Z,1.04
2022-12-19T01:06:32.172Z,1.04
2022-12-19T01:07:32.306Z,1.04
2022-12-19T01:08:32.414Z,1.04
2022-12-19T01:09:32.572Z,1.04
2022-12-19T01:10:32.727Z,1.04
2022-12-19T01:11:32.834Z,1.04
2022-12-19T01:12:32.982Z,1.04
2022-12-19T01:13:33.130Z,1.04
2022-12-19T01:14:33.279Z,1.04
2022-12-19T01:15:33.419Z,1.04
2022-12-19T01:16:33.577Z,1.04
2022-12-19T01:17:33.634Z,1.04
2022-12-19T01:18:33.782Z,1.04
2022-12-19T01:19:35.866Z,1.04
2022-12-19T01:20:34.002Z,1.04
2022-12-19T01:21:34.143Z,1.04
2022-12-19T01:22:34.293Z,1.04
2022-12-19T01:23:34.452Z,1.04
2022-12-19T01:24:34.594Z,1.04
2022-12-19T01:25:34.742Z,1.04
2022-12-19T01:26:34.856Z,1.04
2022-12-19T01:27:34.997Z,1.04
2022-12-19T01:28:35.114Z,1.04
2022-12-19T01:29:36.794Z,1.04
2022-12-19T01:30:35.393Z,1.04
2022-12-19T01:31:35.558Z,1.04
2022-12-19T01:32:35.657Z,1.04
2022-12-19T01:33:35.759Z,1.04
2022-12-19T01:34:35.908Z,1.04
2022-12-19T01:35:36.062Z,1.04
2022-12-19T01:36:38.650Z,1.04
2022-12-19T01:37:36.325Z,1.04
2022-12-19T01:38:36.467Z,1.04
2022-12-19T01:39:36.622Z,1.04
2022-12-19T01:40:36.784Z,1.04
2022-12-19T01:41:36.936Z,1.04
2022-12-19T01:42:37.057Z,1.04
2022-12-19T01:43:37.169Z,1.04
2022-12-19T01:44:37.316Z,1.04
2022-12-19T01:45:40.904Z,1.04
2022-12-19T01:46:37.658Z,1.04
2022-12-19T01:47:37.716Z,1.04
2022-12-19T01:48:37.876Z,1.04
2022-12-19T01:49:38.031Z,1.04
2022-12-19T01:50:38.179Z,1.04
2022-12-19T01:51:38.329Z,1.04
2022-12-19T01:52:38.470Z,1.04
2022-12-19T01:53:44.696Z,1.04
2022-12-19T01:54:38.761Z,1.04
2022-12-19T01:55:38.890Z,1.04
2022-12-19T01:56:39.026Z,1.04
2022-12-19T01:57:39.176Z,1.04
2022-12-19T01:58:39.327Z,1.04
2022-12-19T01:59:39.472Z,1.04
2022-12-19T02:00:39.615Z,1.04
2022-12-19T02:01:45.827Z,1.04
2022-12-19T02:02:40.013Z,1.04
2022-12-19T02:03:40.074Z,1.04
2022-12-19T02:04:40.169Z,1.04
2022-12-19T02:05:40.333Z,1.04
2022-12-19T02:06:40.473Z,1.04
2022-12-19T02:07:40.638Z,1.04
2022-12-19T02:08:40.788Z,1.04
2022-12-19T02:09:40.941Z,1.04
2022-12-19T02:10:41.089Z,1.04
2022-12-19T02:11:41.249Z,1.04
2022-12-19T02:12:41.401Z,1.04
2022-12-19T02:13:41.540Z,1.04
2022-12-19T02:14:41.691Z,1.04
2022-12-19T02:15:41.848Z,1.04
2022-12-19T02:16:42.029Z,1.04
2022-12-19T02:17:42.101Z,1.04
2022-12-19T02:18:42.260Z,1.04
2022-12-19T02:19:42.402Z,1.04
2022-12-19T02:20:42.552Z,1.04
2022-12-19T02:21:42.710Z,1.04
2022-12-19T02:22:42.853Z,1.04
2022-12-19T02:23:43.019Z,1.04
2022-12-19T02:24:43.171Z,1.04
2022-12-19T02:25:43.331Z,1.04
2022-12-19T02:26:43.482Z,1.04
2022-12-19T02:27:43.621Z,1.04
2022-12-19T02:28:43.783Z,1.04
2022-12-19T02:29:43.975Z,1.04
2022-12-19T02:30:44.109Z,1.04
2022-12-19T02:31:44.262Z,1.04
2022-12-19T02:32:44.338Z,1.04
2022-12-19T02:33:44.483Z,1.04
2022-12-19T02:34:44.867Z,1.04
2022-12-19T02:35:44.789Z,1.04
2022-12-19T02:36:45.470Z,1.04
2022-12-19T02:37:45.095Z,1.04
2022-12-19T02:38:45.196Z,1.04
2022-12-19T02:39:45.348Z,1.04
2022-12-19T02:40:45.494Z,1.04
2022-12-19T02:41:45.655Z,1.04
2022-12-19T02:42:45.807Z,1.04
2022-12-19T02:43:45.944Z,1.04
2022-12-19T02:44:46.119Z,1.04
2022-12-19T02:45:46.279Z,1.04
2022-12-19T02:46:46.347Z,1.04
2022-12-19T02:47:46.513Z,1.04
2022-12-19T02:48:46.671Z,1.04
2022-12-19T02:49:46.818Z,1.04
2022-12-19T02:50:47.928Z,1.04
2022-12-19T02:51:47.141Z,1.04
2022-12-19T02:52:47.269Z,1.04
2022-12-19T02:53:47.414Z,1.04
2022-12-19T02:54:47.572Z,1.04
2022-12-19T02:55:47.725Z,1.04
2022-12-19T02:56:47.889Z,1.04
2022-12-19T02:57:48.029Z,1.04
2022-12-19T02:58:48.181Z,1.04
2022-12-19T02:59:48.337Z,1.04
2022-12-19T03:00:48.450Z,1.04
2022-12-19T03:01:48.725Z,1.04
2022-12-19T03:02:50.507Z,1.04
2022-12-19T03:03:48.934Z,1.04
2022-12-19T03:04:49.051Z,1.04
2022-12-19T03:05:49.199Z,1.04
2022-12-19T03:06:49.352Z,1.04
2022-12-19T03:07:49.494Z,1.04
2022-12-19T03:08:49.606Z,1.04
2022-12-19T03:09:49.741Z,1.04
2022-12-19T03:10:49.908Z,1.04
2022-12-19T03:11:50.065Z,1.04
2022-12-19T03:12:50.203Z,1.04
2022-12-19T03:13:50.366Z,1.04
2022-12-19T03:14:50.519Z,1.04
2022-12-19T03:15:50.667Z,1.04
2022-12-19T03:16:50.839Z,1.04
2022-12-19T03:17:50.986Z,1.04
2022-12-19T03:18:51.123Z,1.04
2022-12-19T03:19:51.296Z,1.04
2022-12-19T03:20:51.429Z,1.04
2022-12-19T03:21:51.575Z,1.04
2022-12-19T03:22:51.722Z,1.04
2022-12-19T03:23:51.871Z,1.04
2022-12-19T03:24:52.034Z,1.04
2022-12-19T03:25:52.175Z,1.04
2022-12-19T03:26:52.317Z,1.04
2022-12-19T03:27:52.482Z,1.04
2022-12-19T03:28:52.637Z,1.04
2022-12-19T03:29:52.739Z,1.04
2022-12-19T03:30:52.936Z,1.04
2022-12-19T03:31:53.002Z,1.04
2022-12-19T03:32:53.137Z,1.04
2022-12-19T03:33:53.280Z,1.04
2022-12-19T03:34:53.468Z,1.04
2022-12-19T03:35:53.607Z,1.04
2022-12-19T03:36:53.771Z,1.04
2022-12-19T03:37:53.901Z,1.04
2022-12-19T03:38:54.054Z,1.04
2022-12-19T03:39:54.225Z,1.04
2022-12-19T03:40:54.353Z,1.04
2022-12-19T03:41:54.503Z,1.04
2022-12-19T03:42:54.658Z,1.04
2022-12-19T03:43:54.814Z,1.04
2022-12-19T03:44:54.952Z,1.04
2022-12-19T03:45:55.098Z,1.04
2022-12-19T03:46:55.225Z,1.04
2022-12-19T03:47:55.377Z,1.04
2022-12-19T03:48:55.520Z,1.04
2022-12-19T03:49:55.657Z,1.04
2022-12-19T03:50:55.880Z,1.04
2022-12-19T03:51:59.318Z,1.04
2022-12-19T03:52:56.098Z,1.04
2022-12-19T03:53:56.243Z,1.04
2022-12-19T03:54:56.368Z,1.04
2022-12-19T03:55:56.528Z,1.04
2022-12-19T03:56:56.683Z,1.04
2022-12-19T03:57:56.836Z,1.04
2022-12-19T03:58:56.984Z,1.04
2022-12-19T03:59:57.140Z,1.04
2022-12-19T04:00:57.297Z,1.04
2022-12-19T04:01:57.542Z,1.04
2022-12-19T04:02:57.551Z,1.04
2022-12-19T04:03:57.695Z,1.04
2022-12-19T04:04:57.804Z,1.04
2022-12-19T04:05:57.957Z,1.04
2022-12-19T04:06:58.044Z,1.04
2022-12-19T04:07:58.199Z,1.04
2022-12-19T04:08:58.354Z,1.04
2022-12-19T04:09:58.515Z,1.04
2022-12-19T04:10:58.663Z,1.04
2022-12-19T04:11:58.774Z,1.04
2022-12-19T04:12:58.921Z,1.04
2022-12-19T04:13:59.007Z,1.04
2022-12-19T04:14:59.170Z,1.04
2022-12-19T04:15:59.336Z,1.04
2022-12-19T04:16:59.405Z,1.04
2022-12-19T04:17:59.583Z,1.04
2022-12-19T04:18:59.708Z,1.04
2022-12-19T04:19:59.879Z,1.04
2022-12-19T04:21:00.029Z,1.04
2022-12-19T04:22:00.187Z,1.04
2022-12-19T04:23:00.323Z,1.04
2022-12-19T04:24:00.469Z,1.04
2022-12-19T04:25:00.640Z,1.04
2022-12-19T04:26:00.784Z,1.04
2022-12-19T04:27:00.936Z,1.04
2022-12-19T04:28:01.073Z,1.04
2022-12-19T04:29:01.232Z,1.04
2022-12-19T04:30:01.396Z,1.04
2022-12-19T04:31:01.577Z,1.04
2022-12-19T04:32:01.634Z,1.04
2022-12-19T04:33:01.788Z,1.04
2022-12-19T04:34:01.929Z,1.04
2022-12-19T04:35:02.100Z,1.04
2022-12-19T04:36:02.246Z,1.04
2022-12-19T04:37:02.426Z,1.04
2022-12-19T04:38:02.577Z,1.04
2022-12-19T04:39:02.693Z,1.04
2022-12-19T04:40:02.835Z,1.04
2022-12-19T04:41:03.009Z,1.04
2022-12-19T04:42:03.156Z,1.04
2022-12-19T04:43:03.308Z,1.04
2022-12-19T04:44:03.416Z,1.04
2022-12-19T04:45:03.552Z,1.04
2022-12-19T04:46:03.780Z,1.04
2022-12-19T04:47:03.814Z,1.04
2022-12-19T04:48:03.907Z,1.04
2022-12-19T04:49:04.052Z,1.04
2022-12-19T04:50:04.218Z,1.04
2022-12-19T04:51:04.389Z,1.04
2022-12-19T04:52:04.524Z,1.04
2022-12-19T04:53:04.656Z,1.04
2022-12-19T04:54:04.833Z,1.04
2022-12-19T04:55:04.989Z,1.04
2022-12-19T04:56:05.140Z,1.04
2022-12-19T04:57:05.260Z,1.04
2022-12-19T04:58:05.437Z,1.04
2022-12-19T04:59:05.583Z,1.04
2022-12-19T05:00:05.739Z,1.04
2022-12-19T05:01:05.870Z,1.04
2022-12-19T05:02:06.047Z,1.04
2022-12-19T05:03:06.225Z,1.04
2022-12-19T05:04:06.273Z,1.04
2022-12-19T05:05:06.381Z,1.04
2022-12-19T05:06:06.531Z,1.04
2022-12-19T05:07:06.688Z,1.04
2022-12-19T05:08:06.839Z,1.04
2022-12-19T05:09:06.989Z,1.04
2022-12-19T05:10:07.153Z,1.04
2022-12-19T05:11:07.320Z,1.04
2022-12-19T05:12:07.383Z,1.04
2022-12-19T05:13:07.543Z,1.04
2022-12-19T05:14:07.652Z,1.04
2022-12-19T05:15:07.814Z,1.04
2022-12-19T05:16:08.073Z,1.04
2022-12-19T05:17:08.059Z,1.04
2022-12-19T05:18:08.215Z,1.04
2022-12-19T05:19:08.309Z,1.04
2022-12-19T05:20:08.449Z,1.04
2022-12-19T05:21:08.593Z,1.04
2022-12-19T05:22:08.758Z,1.04
2022-12-19T05:23:15.296Z,1.04
2022-12-19T05:24:09.082Z,1.04
2022-12-19T05:25:09.210Z,1.04
2022-12-19T05:26:09.362Z,1.04
2022-12-19T05:27:09.610Z,1.04
2022-12-19T05:28:09.604Z,1.04
2022-12-19T05:29:09.778Z,1.04
2022-12-19T05:30:09.936Z,1.04
2022-12-19T05:31:10.083Z,1.04
2022-12-19T05:32:10.223Z,1.04
2022-12-19T05:33:10.390Z,1.04
2022-12-19T05:34:10.538Z,1.04
2022-12-19T05:35:10.682Z,1.04
2022-12-19T05:36:10.828Z,1.04
2022-12-19T05:37:10.970Z,1.04
2022-12-19T05:38:11.129Z,1.04
2022-12-19T05:39:11.271Z,1.04
2022-12-19T05:40:11.426Z,1.04
2022-12-19T05:41:11.540Z,1.04
2022-12-19T05:42:12.578Z,1.04
2022-12-19T05:43:11.852Z,1.04
2022-12-19T05:44:11.993Z,1.04
2022-12-19T05:45:12.146Z,1.04
2022-12-19T05:46:12.324Z,1.04
2022-12-19T05:47:12.374Z,1.04
2022-12-19T05:48:12.541Z,1.04
2022-12-19T05:49:12.673Z,1.04
2022-12-19T05:50:12.839Z,1.04
2022-12-19T05:51:12.984Z,1.04
2022-12-19T05:52:13.123Z,1.04
2022-12-19T05:53:13.282Z,1.04
2022-12-19T05:54:13.421Z,1.04
2022-12-19T05:55:13.565Z,1.04
2022-12-19T05:56:13.677Z,1.04
2022-12-19T05:57:13.788Z,1.04
2022-12-19T05:58:13.936Z,1.04
2022-12-19T05:59:14.085Z,1.04
2022-12-19T06:00:14.232Z,1.04
2022-12-19T06:01:14.403Z,1.04
2022-12-19T06:02:14.651Z,1.04
2022-12-19T06:03:14.755Z,1.04
2022-12-19T06:04:14.872Z,1.04
2022-12-19T06:05:15.037Z,1.04
2022-12-19T06:06:15.172Z,1.04
2022-12-19T06:07:19.292Z,1.04
2022-12-19T06:08:15.465Z,1.04
2022-12-19T06:09:15.574Z,1.04
2022-12-19T06:10:15.739Z,1.04
2022-12-19T06:11:15.832Z,1.04
2022-12-19T06:12:15.972Z,1.04
2022-12-19T06:13:17.694Z,1.04
2022-12-19T06:14:16.273Z,1.04
2022-12-19T06:15:16.422Z,1.04
2022-12-19T06:16:16.616Z,1.04
2022-12-19T06:17:16.690Z,1.04
2022-12-19T06:18:16.825Z,1.04
2022-12-19T06:19:16.971Z,1.04
2022-12-19T06:20:17.131Z,1.04
2022-12-19T06:21:17.289Z,1.04
2022-12-19T06:22:17.448Z,2
2022-12-19T06:23:17.551Z,2
2022-12-19T06:24:17.716Z,2
2022-12-19T06:25:17.848Z,2
2022-12-19T06:26:19.723Z,2
2022-12-19T06:27:18.144Z,2
2022-12-19T06:28:18.308Z,2
2022-12-19T06:29:18.451Z,3.04
2022-12-19T06:30:18.823Z,3.04
2022-12-19T06:31:19.068Z,3.04
2022-12-19T06:32:19.098Z,4
2022-12-19T06:33:19.186Z,4
2022-12-19T06:34:39.746Z,5.04
2022-12-19T06:35:19.455Z,5.04
2022-12-19T06:36:19.653Z,6
2022-12-19T06:37:19.759Z,7.04
2022-12-19T06:38:19.906Z,8
2022-12-19T06:39:20.048Z,9.04
2022-12-19T06:40:20.208Z,10
2022-12-19T06:41:20.356Z,12
2022-12-19T06:42:20.505Z,14
2022-12-19T06:43:20.696Z,16
2022-12-19T06:44:20.805Z,19.04
2022-12-19T06:45:20.974Z,21.04
2022-12-19T06:46:21.125Z,26
2022-12-19T06:47:21.217Z,29.04
2022-12-19T06:48:21.367Z,33.04
2022-12-19T06:49:21.540Z,40
2022-12-19T06:50:21.663Z,45.04
2022-12-19T06:51:21.850Z,54
2022-12-19T06:52:22.009Z,61.04
2022-12-19T06:53:22.129Z,71.04
2022-12-19T06:54:22.296Z,80
2022-12-19T06:55:22.436Z,89.04
2022-12-19T06:56:22.577Z,105.04
2022-12-19T06:57:22.745Z,117.04
2022-12-19T06:58:24.427Z,131.04
2022-12-19T06:59:22.982Z,151.04
2022-12-19T07:00:23.154Z,169.12
2022-12-19T07:01:23.453Z,188
2022-12-19T07:02:23.486Z,202.08
2022-12-19T07:03:23.499Z,217.12
2022-12-19T07:04:23.629Z,230.08
2022-12-19T07:05:23.801Z,236
2022-12-19T07:06:23.910Z,240
2022-12-19T07:07:24.050Z,244
2022-12-19T07:08:24.204Z,249.12
2022-12-19T07:09:24.366Z,257.12
2022-12-19T07:10:24.582Z,266.08
2022-12-19T07:11:24.652Z,279.04
2022-12-19T07:12:24.844Z,296
2022-12-19T07:13:24.970Z,312
2022-12-19T07:14:25.127Z,335.04
2022-12-19T07:15:25.211Z,355.2
2022-12-19T07:16:25.415Z,377.28
2022-12-19T07:17:25.530Z,407.04
2022-12-19T07:18:25.682Z,433.28
2022-12-19T07:19:25.820Z,463.04
2022-12-19T07:20:25.966Z,487.04
2022-12-19T07:21:26.113Z,515.2
2022-12-19T07:22:26.264Z,557.12
2022-12-19T07:23:26.412Z,596.16
2022-12-19T07:24:26.579Z,635.2
2022-12-19T07:25:26.732Z,678.4
2022-12-19T07:26:27.201Z,728.32
2022-12-19T07:27:33.932Z,761.6
2022-12-19T07:28:27.156Z,784
2022-12-19T07:29:27.276Z,817.28
2022-12-19T07:30:27.472Z,856.32
2022-12-19T07:31:27.630Z,902.4
2022-12-19T07:32:27.698Z,946.56
2022-12-19T07:33:27.806Z,992
2022-12-19T07:34:27.951Z,1046.4
2022-12-19T07:35:28.107Z,1093.12
2022-12-19T07:36:28.243Z,1152
2022-12-19T07:37:28.391Z,1197.44
2022-12-19T07:38:28.568Z,1233.28
2022-12-19T07:39:28.715Z,1262.08
2022-12-19T07:40:28.933Z,1287.04
2022-12-19T07:41:29.026Z,1428.48
2022-12-19T07:42:32.429Z,1500.16
2022-12-19T07:43:29.444Z,1562.88
2022-12-19T07:44:29.404Z,1635.84
2022-12-19T07:45:29.583Z,1701.12
2022-12-19T07:46:29.655Z,1797.12
2022-12-19T07:47:29.840Z,1875.2
2022-12-19T07:48:29.914Z,1943.04
2022-12-19T07:49:30.062Z,2018.56
2022-12-19T07:50:30.269Z,2080
2022-12-19T07:51:30.365Z,2140.16
2022-12-19T07:52:30.534Z,2204.16
2022-12-19T07:53:30.664Z,2254.08
2022-12-19T07:54:30.821Z,2310.4
2022-12-19T07:55:30.960Z,2341.12
2022-12-19T07:56:31.066Z,2374.4
2022-12-19T07:57:31.225Z,2410.24
2022-12-19T07:58:31.359Z,2465.28
2022-12-19T07:59:35.710Z,2538.24
2022-12-19T08:00:31.593Z,2590.72
2022-12-19T08:01:31.822Z,2647.04
2022-12-19T08:02:31.838Z,2726.4
2022-12-19T08:03:31.891Z,2813.44
2022-12-19T08:04:31.989Z,2949.12
2022-12-19T08:05:32.119Z,3072
2022-12-19T08:06:35.215Z,3202.56
2022-12-19T08:07:32.389Z,3363.84
2022-12-19T08:08:32.540Z,3502.08
2022-12-19T08:09:32.678Z,3632.64
2022-12-19T08:10:32.861Z,3776
2022-12-19T08:11:32.997Z,3883.52
2022-12-19T08:12:33.143Z,3996.16
2022-12-19T08:13:38.046Z,4078.08
2022-12-19T08:14:33.447Z,4165.12
2022-12-19T08:15:33.580Z,4270.08
2022-12-19T08:16:44.090Z,4377.6
2022-12-19T08:17:33.931Z,4531.2
2022-12-19T08:18:33.945Z,4674.56
2022-12-19T08:19:34.109Z,4874.24
2022-12-19T08:20:34.277Z,5043.2
2022-12-19T08:21:34.785Z,5212.16
2022-12-19T08:22:34.558Z,5416.96
2022-12-19T08:23:34.698Z,5560.32
2022-12-19T08:24:35.483Z,5713.92
2022-12-19T08:25:34.960Z,5831.68
2022-12-19T08:26:38.547Z,5954.56
2022-12-19T08:27:35.216Z,6036.48
2022-12-19T08:28:35.369Z,6103.04
2022-12-19T08:29:35.568Z,6067.2
2022-12-19T08:30:35.666Z,6026.24
2022-12-19T08:31:35.780Z,5975.04
2022-12-19T08:32:35.872Z,5882.88
2022-12-19T08:33:36.024Z,5852.16
2022-12-19T08:34:36.187Z,5944.32
2022-12-19T08:35:36.339Z,6133.76
2022-12-19T08:36:36.433Z,6343.68
2022-12-19T08:37:36.566Z,6528
2022-12-19T08:38:36.747Z,6640.64
2022-12-19T08:39:36.888Z,6753.28
2022-12-19T08:40:37.031Z,6819.84
2022-12-19T08:41:37.191Z,6906.88
2022-12-19T08:42:37.341Z,7045.12
2022-12-19T08:43:37.458Z,7168
2022-12-19T08:44:37.616Z,7290.88
2022-12-19T08:45:37.768Z,7388.16
2022-12-19T08:46:37.918Z,7444.48
2022-12-19T08:47:38.055Z,7470.08
2022-12-19T08:48:38.231Z,7464.96
2022-12-19T08:49:38.355Z,7383.04
2022-12-19T08:50:38.524Z,7316.48
2022-12-19T08:51:38.660Z,7260.16
2022-12-19T08:52:38.794Z,7147.52
2022-12-19T08:53:38.958Z,7034.88
2022-12-19T08:54:39.101Z,6824.96
2022-12-19T08:55:39.260Z,6676.48
2022-12-19T08:56:41.431Z,6574.08
2022-12-19T08:57:39.592Z,6528
2022-12-19T08:58:39.726Z,6522.88
2022-12-19T08:59:39.855Z,6512.64
2022-12-19T09:00:40.032Z,6492.16
2022-12-19T09:01:40.240Z,6502.4
2022-12-19T09:02:40.425Z,6517.76
2022-12-19T09:03:49.099Z,6543.36
2022-12-19T09:06:03.009Z,6650.88
2022-12-19T09:06:40.845Z,6717.44
2022-12-19T09:07:40.926Z,6830.08
2022-12-19T09:08:41.092Z,6927.36
2022-12-19T09:09:41.186Z,7014.4
2022-12-19T09:10:41.332Z,7096.32
2022-12-19T09:11:45.509Z,7132.16
2022-12-19T09:12:41.628Z,7127.04
2022-12-19T09:13:41.788Z,7127.04
2022-12-19T09:14:41.937Z,7116.8
2022-12-19T09:15:42.168Z,7106.56
2022-12-19T09:16:42.374Z,7091.2
2022-12-19T09:17:42.386Z,7086.08
2022-12-19T09:18:47.968Z,7060.48
2022-12-19T09:19:43.030Z,7019.52
2022-12-19T09:20:42.800Z,6942.72
2022-12-19T09:21:42.956Z,6942.72
2022-12-19T09:22:43.036Z,6999.04
2022-12-19T09:23:43.208Z,7111.68
2022-12-19T09:24:43.345Z,7234.56
2022-12-19T09:25:43.496Z,7398.4
2022-12-19T09:26:43.667Z,7557.12
2022-12-19T09:28:17.783Z,7751.68
2022-12-19T09:28:43.856Z,7895.04
2022-12-19T09:29:44.023Z,8007.68
2022-12-19T09:30:44.195Z,8099.84
2022-12-19T09:31:44.240Z,8135.68
2022-12-19T09:32:44.346Z,8140.8
2022-12-19T09:33:44.521Z,8135.68
2022-12-19T09:34:44.681Z,8151.04
2022-12-19T09:35:44.832Z,8140.8
2022-12-19T09:36:44.969Z,8125.44
2022-12-19T09:37:45.124Z,8048.64
2022-12-19T09:38:45.450Z,7987.2
2022-12-19T09:39:45.672Z,7961.6
2022-12-19T09:40:45.717Z,8038.4
2022-12-19T09:41:45.878Z,8099.84
2022-12-19T09:42:46.035Z,8151.04
2022-12-19T09:43:46.192Z,8156.16
2022-12-19T09:44:46.346Z,8115.2
2022-12-19T09:45:46.566Z,8069.12
2022-12-19T09:46:46.575Z,8043.52
2022-12-19T09:47:46.680Z,8089.6
2022-12-19T09:48:52.569Z,8166.4
2022-12-19T09:49:47.139Z,8253.44
2022-12-19T09:50:47.300Z,8309.76
2022-12-19T09:51:47.430Z,8396.8
2022-12-19T09:52:47.520Z,8576
2022-12-19T09:53:53.434Z,8693.76
2022-12-19T09:54:47.845Z,8785.92
2022-12-19T09:55:48.022Z,9052.16
2022-12-19T09:56:48.105Z,9318.399
2022-12-19T09:57:48.254Z,9559.04
2022-12-19T09:58:48.394Z,9794.56
2022-12-19T09:59:50.116Z,9984
2022-12-19T10:00:48.694Z,10240
2022-12-19T10:01:48.937Z,10393.6
2022-12-19T10:02:49.090Z,10516.479
2022-12-19T10:03:49.101Z,10629.12
2022-12-19T10:04:49.151Z,10741.76
2022-12-19T10:06:08.277Z,10885.12
2022-12-19T10:08:07.471Z,11018.24
2022-12-19T10:09:21.846Z,11100.16
2022-12-19T10:12:37.084Z,11714.56
2022-12-19T10:12:51.525Z,12062.72
2022-12-19T10:13:50.378Z,12328.96
2022-12-19T10:14:50.539Z,12308.479
2022-12-19T10:15:56.209Z,12185.6
2022-12-19T10:17:08.818Z,12216.319
2022-12-19T10:17:50.986Z,12390.399
2022-12-19T10:18:56.190Z,12718.08
2022-12-19T10:19:51.284Z,12892.16
2022-12-19T10:20:51.455Z,12922.88
2022-12-19T10:22:16.755Z,12800
2022-12-19T10:22:51.730Z,12738.56
2022-12-19T10:23:51.842Z,12584.96
2022-12-19T10:24:59.612Z,12339.2
2022-12-19T10:25:52.130Z,12144.64
2022-12-19T10:26:52.239Z,11929.6
2022-12-19T10:27:59.087Z,11581.439
2022-12-19T10:28:52.569Z,11407.359
2022-12-19T10:29:52.696Z,10946.56
2022-12-19T10:30:52.921Z,10480.64
2022-12-19T10:31:53.534Z,10035.2
2022-12-19T10:32:53.092Z,9594.88
2022-12-19T10:33:53.271Z,9195.52
2022-12-19T10:34:53.390Z,8698.88
2022-12-19T10:35:53.592Z,8330.24
2022-12-19T10:37:13.254Z,8125.44
2022-12-19T10:37:53.842Z,8079.36
2022-12-19T10:38:53.975Z,8217.6
2022-12-19T10:39:54.131Z,8432.64
2022-12-19T10:40:54.260Z,8499.2
2022-12-19T10:41:54.399Z,8442.88
2022-12-19T10:42:54.561Z,8156.16
2022-12-19T10:43:54.674Z,7859.2
2022-12-19T10:44:54.835Z,7639.04
2022-12-19T10:45:54.969Z,7285.76
2022-12-19T10:46:55.147Z,6983.68
2022-12-19T10:47:55.279Z,6512.64
2022-12-19T10:48:55.454Z,6241.28
2022-12-19T10:49:55.593Z,5918.72
2022-12-19T10:50:55.741Z,5652.48
2022-12-19T10:51:55.876Z,5422.08
2022-12-19T10:52:56.037Z,5519.36
2022-12-19T10:53:56.155Z,5770.24
2022-12-19T10:54:56.295Z,5939.2
2022-12-19T10:55:56.433Z,6041.6
2022-12-19T10:56:56.567Z,6118.4
2022-12-19T10:57:56.659Z,6184.96
2022-12-19T10:58:56.799Z,6164.48
2022-12-19T10:59:56.954Z,6128.64
2022-12-19T11:00:57.121Z,6138.88
2022-12-19T11:02:00.622Z,6195.2
2022-12-19T11:02:57.497Z,6297.6
2022-12-19T11:03:57.494Z,6369.28
2022-12-19T11:04:57.781Z,6446.08
2022-12-19T11:05:58.638Z,6522.88
2022-12-19T11:06:57.915Z,6635.52
2022-12-19T11:07:58.060Z,6789.12
2022-12-19T11:08:58.246Z,7004.16
2022-12-19T11:10:19.529Z,7203.84
2022-12-19T11:11:48.656Z,7480.32
2022-12-19T11:17:28.141Z,7480.32
2022-12-19T11:29:15.912Z,8995.84
2022-12-19T11:29:28.764Z,7424
2022-12-19T11:31:50.706Z,7101.44
2022-12-19T11:32:34.174Z,7162.88
2022-12-19T11:33:01.373Z,7331.84
2022-12-19T11:34:01.508Z,7490.56
2022-12-19T11:35:01.651Z,7639.04
2022-12-19T11:36:01.816Z,7726.08
2022-12-19T11:37:01.949Z,7741.44
2022-12-19T11:38:02.093Z,7618.56
2022-12-19T11:39:02.253Z,7500.8
2022-12-19T11:40:02.400Z,7168
2022-12-19T11:41:02.556Z,6937.6
2022-12-19T11:42:02.724Z,6768.64
2022-12-19T11:44:02.994Z,6522.88
2022-12-19T11:45:03.157Z,6394.88
2022-12-19T11:46:03.293Z,6297.6
2022-12-19T11:47:03.460Z,6220.8
2022-12-19T11:48:03.604Z,6210.56
2022-12-19T11:49:03.973Z,6282.24
2022-12-19T11:50:04.127Z,6389.76
2022-12-19T11:51:04.255Z,6451.2
2022-12-19T11:52:04.413Z,6543.36
2022-12-19T11:53:08.337Z,6609.92
2022-12-19T11:54:04.737Z,6650.88
2022-12-19T11:55:04.870Z,6748.16
2022-12-19T11:56:04.992Z,6784
2022-12-19T11:57:05.162Z,6696.96
2022-12-19T11:58:05.307Z,6533.12
2022-12-19T11:59:05.429Z,6343.68
2022-12-19T12:00:06.040Z,6215.68
2022-12-19T12:01:05.715Z,6016
2022-12-19T12:02:05.919Z,5749.76
2022-12-19T12:03:05.970Z,5524.48
2022-12-19T12:04:06.175Z,5544.96
2022-12-19T12:05:06.275Z,5662.72
2022-12-19T12:06:06.436Z,5800.96
2022-12-19T12:07:11.910Z,5862.4
2022-12-19T12:08:20.050Z,5847.04
2022-12-19T12:15:11.043Z,5391.36
2022-12-19T12:23:31.105Z,5391.36
2022-12-19T12:31:03.041Z,4400.64
2022-12-19T12:31:33.420Z,4730.88
2022-12-19T12:38:07.284Z,3712
2022-12-19T12:39:11.001Z,3368.96
2022-12-19T12:40:10.789Z,3328
2022-12-19T12:41:10.945Z,3343.36
2022-12-19T12:42:11.083Z,3379.2
2022-12-19T12:43:11.247Z,3399.68
2022-12-19T12:44:11.349Z,3397.12
2022-12-19T12:45:11.488Z,3397.12
2022-12-19T12:46:11.657Z,3415.04
2022-12-19T12:47:11.750Z,3422.72
2022-12-19T12:48:11.919Z,3376.64
2022-12-19T12:49:12.070Z,3279.36
2022-12-19T12:50:12.226Z,3166.72
2022-12-19T12:51:12.348Z,3072
2022-12-19T12:52:12.499Z,3041.28
2022-12-19T12:53:12.740Z,3046.4
2022-12-19T12:54:12.833Z,3020.8
2022-12-19T12:55:12.917Z,2926.08
2022-12-19T12:56:13.060Z,2818.56
2022-12-19T12:57:13.203Z,2759.68
2022-12-19T12:58:14.682Z,2726.4
2022-12-19T12:59:13.528Z,2721.28
2022-12-19T13:00:13.683Z,2703.36
2022-12-19T13:01:13.869Z,2769.92
2022-12-19T13:02:14.080Z,2828.8
2022-12-19T13:03:14.372Z,2972.16
2022-12-19T13:04:14.224Z,3079.68
2022-12-19T13:05:14.383Z,3084.8
2022-12-19T13:06:14.526Z,3051.52
2022-12-19T13:07:14.681Z,3064.32
2022-12-19T13:08:14.822Z,3125.76
2022-12-19T13:09:14.929Z,3102.72
2022-12-19T13:10:15.098Z,3005.44
2022-12-19T13:11:15.289Z,2810.88
2022-12-19T13:12:15.388Z,2685.44
2022-12-19T13:13:18.643Z,2613.76
2022-12-19T13:14:15.691Z,2496
2022-12-19T13:15:15.852Z,2419.2
2022-12-19T13:16:16.021Z,2336
2022-12-19T13:17:16.095Z,2259.2
2022-12-19T13:18:16.240Z,2202.88
2022-12-19T13:19:19.842Z,2135.04
2022-12-19T13:20:16.554Z,2105.6
2022-12-19T13:21:16.699Z,2092.8
2022-12-19T13:22:16.880Z,2081.28
2022-12-19T13:23:17.058Z,2076.16
2022-12-19T13:24:17.227Z,2050.56
2022-12-19T13:25:17.341Z,1980.16
2022-12-19T13:26:19.730Z,1882.88
2022-12-19T13:27:17.609Z,1772.8
2022-12-19T13:28:17.762Z,1734.4
2022-12-19T13:29:17.907Z,1724.16
2022-12-19T13:30:18.067Z,1701.12
2022-12-19T13:31:20.110Z,1660.16
2022-12-19T13:32:18.259Z,1629.44
2022-12-19T13:33:18.441Z,1606.4
2022-12-19T13:34:18.578Z,1569.28
2022-12-19T13:35:32.293Z,1501.44
2022-12-19T13:39:52.646Z,1415.68
2022-12-19T13:40:20.807Z,1427.2